Terminal Aerodrome Forecast
Issued by NWS Rapid City, SD

Home | Current Version | Previous Version | Graphics & Text | Print | Product List | Glossary On
Versions: 1 2 3 4 5 6 7 8 9 10 11 12 13 14 15 16 17 18 19 20 21 22 23 24 25 26 27 28 29 30 31 32 33 34
115
FTUS43 KUNR 211505 AAA
TAFRAP
TAF AMD
KRAP 211505Z 2115/2212 09010KT 3SM BR OVC002
      TEMPO 2115/2118 1SM BR
     FM211800 11013KT P6SM OVC007
     FM212300 14012KT P6SM OVC015=

USA.gov is the U.S. government's official web portal to all federal, state and local government web resources and services.